createdAt,value
2018-11-21T00:01:18.348Z,25.50
2018-11-21T00:04:06.224Z,25.97
2018-11-21T00:06:53.886Z,25.77
2018-11-21T00:09:41.637Z,26.42
2018-11-21T00:12:29.367Z,25.83
2018-11-21T00:15:17.083Z,25.30
2018-11-21T00:18:04.751Z,25.80
2018-11-21T00:20:53.265Z,25.35
2018-11-21T00:23:41.769Z,25.57
2018-11-21T00:26:29.470Z,25.60
2018-11-21T00:29:17.247Z,25.43
2018-11-21T00:32:04.934Z,25.50
2018-11-21T00:37:47.556Z,24.67
2018-11-21T00:40:35.281Z,24.53
2018-11-21T00:46:31.878Z,24.83
2018-11-21T00:49:19.680Z,24.53
2018-11-21T00:52:07.346Z,26.53
2018-11-21T00:54:55.970Z,24.87
2018-11-21T00:57:43.637Z,24.23
2018-11-21T01:00:31.365Z,26.37
2018-11-21T01:03:19.102Z,24.53
2018-11-21T01:06:06.800Z,26.07
2018-11-21T01:08:54.544Z,26.33
2018-11-21T01:11:42.230Z,26.37
2018-11-21T01:14:29.916Z,26.17
2018-11-21T01:17:17.870Z,25.73
2018-11-21T01:20:06.271Z,25.17
2018-11-21T01:22:54.044Z,25.73
2018-11-21T01:25:42.295Z,26.77
2018-11-21T01:28:10.586Z,26.43
2018-11-21T01:30:38.844Z,25.30
2018-11-21T01:33:09.745Z,25.93
2018-11-21T01:35:35.447Z,25.00
2018-11-21T01:38:23.146Z,24.50
2018-11-21T01:40:51.418Z,26.10
2018-11-21T01:43:39.105Z,23.62
2018-11-21T01:46:26.812Z,26.23
2018-11-21T01:49:14.485Z,26.03
2018-11-21T01:52:02.218Z,24.30
2018-11-21T01:54:50.094Z,22.73
2018-11-21T01:57:37.737Z,25.03
2018-11-21T02:00:25.431Z,25.37
2018-11-21T02:03:13.079Z,23.43
2018-11-21T02:06:00.867Z,24.07
2018-11-21T02:08:48.539Z,24.97
2018-11-21T02:11:36.326Z,25.33
2018-11-21T02:14:23.945Z,23.87
2018-11-21T02:17:11.688Z,23.97
2018-11-21T02:19:59.438Z,23.60
2018-11-21T02:22:47.569Z,24.60
2018-11-21T02:25:35.297Z,23.30
2018-11-21T02:28:22.973Z,23.10
2018-11-21T02:34:17.892Z,23.33
2018-11-21T02:37:05.650Z,22.63
2018-11-21T02:39:53.355Z,21.00
2018-11-21T02:42:41.062Z,22.90
2018-11-21T02:45:28.849Z,23.60
2018-11-21T02:48:16.562Z,22.23
2018-11-21T02:51:04.695Z,23.37
2018-11-21T02:53:52.344Z,23.93
2018-11-21T02:56:59.469Z,23.32
2018-11-21T02:59:47.450Z,23.20
2018-11-21T03:02:35.133Z,22.33
2018-11-21T03:05:22.900Z,23.10
2018-11-21T03:08:10.933Z,24.17
2018-11-21T03:10:58.602Z,23.17
2018-11-21T03:13:46.321Z,23.18
2018-11-21T03:16:34.967Z,21.63
2018-11-21T03:19:22.650Z,24.07
2018-11-21T03:22:10.482Z,23.32
2018-11-21T03:24:58.256Z,23.40
2018-11-21T03:27:46.015Z,23.77
2018-11-21T03:30:33.797Z,23.27
2018-11-21T03:33:21.557Z,22.00
2018-11-21T03:36:09.267Z,23.27
2018-11-21T03:38:56.988Z,23.73
2018-11-21T03:41:44.946Z,24.12
2018-11-21T03:44:32.702Z,23.92
2018-11-21T03:47:20.585Z,22.50
2018-11-21T03:50:08.836Z,25.05
2018-11-21T03:52:56.546Z,24.70
2018-11-21T03:55:44.331Z,23.62
2018-11-21T03:58:32.038Z,24.23
2018-11-21T04:01:19.826Z,23.07
2018-11-21T04:04:08.388Z,23.50
2018-11-21T04:06:56.103Z,23.50
2018-11-21T04:09:43.926Z,24.03
2018-11-21T04:12:31.695Z,24.92
2018-11-21T04:15:19.532Z,24.43
2018-11-21T04:18:07.180Z,24.30
2018-11-21T04:20:54.967Z,24.37
2018-11-21T04:23:42.696Z,26.35
2018-11-21T04:26:30.409Z,24.57
2018-11-21T04:29:18.182Z,24.07
2018-11-21T04:32:05.916Z,22.77
2018-11-21T04:34:53.892Z,25.20
2018-11-21T04:37:41.696Z,24.73
2018-11-21T04:40:29.426Z,24.20
2018-11-21T04:43:17.225Z,25.27
2018-11-21T04:46:05.081Z,24.45
2018-11-21T04:48:52.810Z,24.73
2018-11-21T04:51:40.772Z,24.00
2018-11-21T04:54:28.539Z,23.87
2018-11-21T04:57:16.245Z,24.67
2018-11-21T05:00:04.887Z,22.93
2018-11-21T05:02:52.550Z,24.85
2018-11-21T05:05:40.228Z,24.72
2018-11-21T05:08:28.177Z,24.85
2018-11-21T05:11:15.859Z,24.83
2018-11-21T05:14:03.773Z,24.23
2018-11-21T05:16:51.465Z,23.90
2018-11-21T05:19:39.153Z,25.00
2018-11-21T05:22:26.856Z,23.50
2018-11-21T05:25:14.857Z,24.07
2018-11-21T05:28:02.342Z,22.42
2018-11-21T05:30:50.050Z,24.65
2018-11-21T05:33:37.753Z,24.40
2018-11-21T05:36:25.737Z,24.82
2018-11-21T05:39:13.583Z,24.18
2018-11-21T05:42:01.290Z,23.67
2018-11-21T05:44:49.124Z,22.67
2018-11-21T05:47:36.966Z,24.67
2018-11-21T05:50:24.632Z,23.60
2018-11-21T05:53:12.448Z,23.80
2018-11-21T05:56:00.115Z,22.90
2018-11-21T06:01:54.917Z,24.30
2018-11-21T06:04:42.643Z,23.67
2018-11-21T06:07:30.311Z,23.85
2018-11-21T06:10:17.998Z,22.90
2018-11-21T06:13:05.676Z,24.15
2018-11-21T06:15:53.328Z,22.37
2018-11-21T06:18:41.019Z,23.87
2018-11-21T06:21:28.717Z,23.50
2018-11-21T06:24:16.513Z,24.15
2018-11-21T06:27:04.368Z,22.85
2018-11-21T06:29:52.177Z,21.85
2018-11-21T06:32:40.009Z,23.67
2018-11-21T06:35:27.687Z,23.00
2018-11-21T06:38:15.813Z,23.47
2018-11-21T06:41:03.564Z,24.55
2018-11-21T06:43:52.053Z,24.70
2018-11-21T06:46:39.875Z,23.20
2018-11-21T06:49:27.621Z,26.10
2018-11-21T06:52:21.941Z,25.15
2018-11-21T06:55:03.328Z,24.52
2018-11-21T06:57:51.152Z,24.90
2018-11-21T07:00:38.849Z,25.57
2018-11-21T07:03:26.525Z,25.20
2018-11-21T07:06:14.247Z,23.70
2018-11-21T07:09:01.951Z,25.43
2018-11-21T07:11:49.687Z,26.25
2018-11-21T07:14:37.404Z,23.57
2018-11-21T07:17:25.153Z,25.48
2018-11-21T07:20:13.523Z,25.72
2018-11-21T07:23:01.903Z,24.95
2018-11-21T07:25:50.547Z,24.05
2018-11-21T07:28:38.250Z,24.92
2018-11-21T07:31:25.905Z,23.42
2018-11-21T07:34:13.599Z,25.77
2018-11-21T07:37:01.271Z,24.05
2018-11-21T07:39:48.948Z,25.17
2018-11-21T07:42:17.214Z,24.73
2018-11-21T07:45:05.754Z,24.27
2018-11-21T07:47:34.071Z,24.20
2018-11-21T07:50:22.142Z,25.08
2018-11-21T07:52:50.400Z,24.47
2018-11-21T07:55:38.110Z,24.95
2018-11-21T07:58:27.572Z,24.92
2018-11-21T08:01:34.420Z,25.92
2018-11-21T08:07:43.603Z,23.73
2018-11-21T08:10:50.457Z,24.60
2018-11-21T08:13:57.499Z,24.23
2018-11-21T08:17:04.485Z,24.45
2018-11-21T08:20:11.336Z,23.90
2018-11-21T08:23:18.368Z,23.02
2018-11-21T08:26:14.984Z,24.40
2018-11-21T08:29:03.104Z,24.50
2018-11-21T08:31:50.853Z,25.55
2018-11-21T08:34:38.606Z,24.43
2018-11-21T08:37:26.262Z,23.70
2018-11-21T08:40:14.020Z,25.05
2018-11-21T08:43:01.702Z,24.50
2018-11-21T08:45:42.144Z,23.40
2018-11-21T08:48:23.158Z,23.05
2018-11-21T08:51:03.843Z,23.07
2018-11-21T08:59:24.544Z,23.77
2018-11-21T09:02:05.803Z,24.15
2018-11-21T09:04:46.623Z,23.15
2018-11-21T09:07:27.094Z,22.87
2018-11-21T09:10:07.611Z,22.85
2018-11-21T09:12:48.494Z,23.55
2018-11-21T09:15:28.723Z,22.20
2018-11-21T09:18:09.225Z,23.40
2018-11-21T09:20:49.761Z,23.95
2018-11-21T09:23:30.863Z,21.52
2018-11-21T09:26:11.940Z,22.65
2018-11-21T09:28:52.406Z,24.12
2018-11-21T09:31:33.567Z,22.87
2018-11-21T09:34:14.324Z,22.10
2018-11-21T09:36:55.136Z,23.95
2018-11-21T09:39:36.212Z,22.30
2018-11-21T09:42:17.338Z,22.95
2018-11-21T09:44:57.953Z,23.52
2018-11-21T09:47:40.026Z,22.93
2018-11-21T09:50:38.784Z,22.95
2018-11-21T09:53:19.090Z,22.80
2018-11-21T09:56:00.156Z,22.15
2018-11-21T09:58:40.638Z,22.17
2018-11-21T10:04:34.546Z,21.33
2018-11-21T10:07:14.992Z,21.27
2018-11-21T10:09:55.811Z,23.10
2018-11-21T10:12:36.862Z,22.48
2018-11-21T10:15:05.799Z,21.80
2018-11-21T10:17:34.322Z,23.07
2018-11-21T10:20:02.657Z,22.42
2018-11-21T10:22:50.496Z,21.75
2018-11-21T10:25:38.234Z,22.62
2018-11-21T10:28:26.799Z,23.07
2018-11-21T10:31:17.683Z,21.82
2018-11-21T10:34:05.418Z,23.18
2018-11-21T10:36:53.213Z,23.02
2018-11-21T10:39:43.603Z,21.35
2018-11-21T10:42:31.279Z,22.55
2018-11-21T10:45:19.081Z,22.15
2018-11-21T10:48:07.080Z,23.05
2018-11-21T10:50:54.809Z,22.22
2018-11-21T10:53:42.508Z,22.62
2018-11-21T10:59:23.553Z,21.50
2018-11-21T11:02:30.440Z,22.55
2018-11-21T11:05:37.276Z,21.82
2018-11-21T11:08:44.170Z,20.85
2018-11-21T11:11:51.050Z,20.95
2018-11-21T11:14:57.947Z,18.77
2018-11-21T11:18:04.804Z,18.30
2018-11-21T11:21:11.786Z,17.55
2018-11-21T11:24:18.630Z,18.85
2018-11-21T11:27:25.451Z,18.45
2018-11-21T11:30:27.377Z,17.45
2018-11-21T11:33:34.276Z,16.80
2018-11-21T11:36:41.163Z,17.87
2018-11-21T11:39:39.820Z,17.30
2018-11-21T11:43:06.129Z,17.32
2018-11-21T11:46:08.033Z,16.77
2018-11-21T11:49:14.904Z,17.52
2018-11-21T11:52:21.896Z,15.90
2018-11-21T11:55:28.840Z,17.15
2018-11-21T11:58:35.737Z,16.23
2018-11-21T12:01:42.580Z,15.60
2018-11-21T12:04:49.479Z,16.27
2018-11-21T12:07:56.334Z,16.45
2018-11-21T12:11:03.446Z,17.65
2018-11-21T12:14:10.324Z,16.15
2018-11-21T12:17:17.174Z,15.15
2018-11-21T12:20:18.634Z,16.40
2018-11-21T12:23:25.530Z,17.00
2018-11-21T12:26:32.515Z,16.25
2018-11-21T12:29:41.882Z,16.50
2018-11-21T12:32:46.304Z,20.77
2018-11-21T12:35:53.175Z,15.95
2018-11-21T12:39:00.102Z,16.50
2018-11-21T12:42:07.035Z,15.83
2018-11-21T12:44:54.482Z,15.15
2018-11-21T12:47:48.893Z,16.25
2018-11-21T12:50:55.814Z,14.15
2018-11-21T12:54:02.697Z,18.73
2018-11-21T12:57:09.544Z,15.78
2018-11-21T13:00:16.402Z,17.30
2018-11-21T13:03:09.146Z,17.15
2018-11-21T13:06:16.771Z,17.57
2018-11-21T13:09:26.113Z,17.00
2018-11-21T13:12:33.033Z,17.20
2018-11-21T13:15:43.492Z,16.27
2018-11-21T13:18:46.810Z,16.82
2018-11-21T13:21:53.714Z,17.35
2018-11-21T13:25:00.606Z,17.15
2018-11-21T13:28:07.683Z,16.62
2018-11-21T13:31:14.591Z,17.20
2018-11-21T13:34:21.473Z,18.35
2018-11-21T13:37:20.455Z,18.70
2018-11-21T13:40:27.988Z,18.75
2018-11-21T13:43:34.848Z,19.92
2018-11-21T13:46:41.779Z,19.27
2018-11-21T13:49:48.632Z,19.50
2018-11-21T13:52:48.973Z,18.70
2018-11-21T13:55:36.708Z,19.20
2018-11-21T13:58:06.465Z,16.32
2018-11-21T14:00:35.666Z,16.17
2018-11-21T14:03:04.006Z,14.87
2018-11-21T14:05:32.254Z,15.98
2018-11-21T14:08:00.560Z,13.78
2018-11-21T14:10:29.255Z,13.30
2018-11-21T14:12:57.833Z,14.00
2018-11-21T14:15:26.231Z,14.78
2018-11-21T14:17:54.494Z,14.63
2018-11-21T14:20:22.720Z,15.43
2018-11-21T14:22:50.993Z,14.50
2018-11-21T14:25:19.589Z,14.75
2018-11-21T14:27:47.908Z,14.93
2018-11-21T14:30:16.836Z,15.23
2018-11-21T14:32:45.306Z,14.55
2018-11-21T14:35:15.045Z,14.58
2018-11-21T14:37:44.409Z,16.60
2018-11-21T14:40:15.175Z,16.15
2018-11-21T14:42:43.466Z,16.97
2018-11-21T14:45:16.347Z,21.07
2018-11-21T14:47:46.313Z,21.40
2018-11-21T14:50:28.369Z,23.32
2018-11-21T14:52:56.661Z,25.97
2018-11-21T14:55:24.959Z,27.73
2018-11-21T14:57:53.153Z,28.00
2018-11-21T15:00:22.904Z,29.23
2018-11-21T15:02:50.973Z,28.73
2018-11-21T15:05:19.265Z,27.65
2018-11-21T15:07:48.017Z,28.52
2018-11-21T15:10:16.427Z,28.67
2018-11-21T15:12:44.769Z,27.82
2018-11-21T15:15:15.366Z,29.35
2018-11-21T15:17:43.761Z,29.07
2018-11-21T15:20:17.369Z,29.67
2018-11-21T15:22:47.579Z,30.17
2018-11-21T15:25:17.779Z,29.72
2018-11-21T15:27:46.255Z,31.27
2018-11-21T15:30:18.224Z,30.88
2018-11-21T15:32:49.044Z,30.95
2018-11-21T15:35:17.715Z,29.40
2018-11-21T15:37:46.454Z,31.02
2018-11-21T15:40:16.165Z,29.77
2018-11-21T15:42:44.455Z,31.90
2018-11-21T15:45:15.096Z,28.52
2018-11-21T15:47:45.127Z,28.62
2018-11-21T15:50:14.618Z,29.40
2018-11-21T15:52:43.431Z,29.18
2018-11-21T15:55:13.168Z,28.45
2018-11-21T15:57:41.436Z,28.80
2018-11-21T16:00:17.864Z,29.48
2018-11-21T16:02:47.105Z,29.72
2018-11-21T16:05:15.966Z,27.58
2018-11-21T16:07:44.240Z,29.55
2018-11-21T16:10:18.512Z,29.15
2018-11-21T16:12:45.567Z,28.85
2018-11-21T16:15:16.617Z,27.30
2018-11-21T16:17:44.880Z,26.35
2018-11-21T16:20:14.499Z,27.17
2018-11-21T16:22:42.837Z,28.38
2018-11-21T16:25:12.908Z,27.05
2018-11-21T16:27:41.819Z,27.05
2018-11-21T16:30:15.328Z,25.72
2018-11-21T16:32:43.873Z,27.77
2018-11-21T16:35:12.586Z,28.55
2018-11-21T16:37:41.346Z,26.37
2018-11-21T16:40:15.807Z,28.92
2018-11-21T16:42:44.124Z,27.30
2018-11-21T16:45:14.460Z,28.38
2018-11-21T16:47:42.830Z,27.55
2018-11-21T16:50:13.490Z,28.70
2018-11-21T16:52:41.819Z,34.58
2018-11-21T16:55:11.962Z,36.08
2018-11-21T16:57:40.280Z,35.58
2018-11-21T17:00:14.078Z,39.92
2018-11-21T17:02:42.340Z,33.90
2018-11-21T17:05:12.339Z,32.58
2018-11-21T17:07:41.033Z,35.58
2018-11-21T17:10:11.356Z,35.60
2018-11-21T17:12:39.835Z,30.90
2018-11-21T17:15:10.258Z,29.80
2018-11-21T17:17:38.784Z,31.33
2018-11-21T17:20:13.917Z,29.25
2018-11-21T17:22:42.150Z,29.25
2018-11-21T17:25:13.107Z,29.67
2018-11-21T17:27:42.232Z,30.30
2018-11-21T17:30:12.197Z,30.00
2018-11-21T17:32:40.580Z,28.85
2018-11-21T17:35:10.234Z,29.55
2018-11-21T17:37:38.594Z,29.10
2018-11-21T17:40:12.683Z,32.83
2018-11-21T17:42:41.121Z,31.97
2018-11-21T17:45:10.495Z,33.42
2018-11-21T17:47:38.823Z,34.60
2018-11-21T17:50:12.894Z,31.48
2018-11-21T17:52:41.196Z,33.00
2018-11-21T17:55:11.771Z,35.25
2018-11-21T17:57:40.180Z,31.90
2018-11-21T18:00:13.564Z,33.05
2018-11-21T18:02:42.041Z,36.38
2018-11-21T18:05:11.428Z,34.03
2018-11-21T18:07:39.716Z,37.10
2018-11-21T18:10:10.405Z,35.63
2018-11-21T18:12:43.669Z,37.42
2018-11-21T18:15:18.760Z,38.00
2018-11-21T18:17:48.068Z,36.40
2018-11-21T18:20:46.855Z,35.28
2018-11-21T18:23:19.747Z,41.60
2018-11-21T18:25:48.218Z,40.35
2018-11-21T18:28:16.664Z,36.88
2018-11-21T18:30:44.977Z,37.25
2018-11-21T18:33:13.749Z,37.63
2018-11-21T18:35:42.000Z,38.58
2018-11-21T18:38:11.370Z,38.98
2018-11-21T18:40:39.767Z,37.93
2018-11-21T18:43:08.305Z,39.83
2018-11-21T18:45:38.609Z,38.20
2018-11-21T18:48:07.230Z,38.45
2018-11-21T18:50:35.512Z,39.15
2018-11-21T18:53:05.341Z,39.90
2018-11-21T18:55:36.302Z,40.08
2018-11-21T18:58:14.520Z,40.43
2018-11-21T19:00:44.800Z,39.92
2018-11-21T19:03:13.339Z,41.13
2018-11-21T19:05:41.920Z,42.80
2018-11-21T19:08:10.491Z,40.03
2018-11-21T19:10:39.016Z,40.20
2018-11-21T19:13:07.673Z,38.40
2018-11-21T19:15:36.189Z,38.78
2018-11-21T19:18:04.758Z,39.67
2018-11-21T19:20:33.339Z,40.23
2018-11-21T19:23:01.904Z,36.80
2018-11-21T19:25:31.239Z,38.00
2018-11-21T19:28:10.634Z,38.38
2018-11-21T19:30:39.203Z,37.50
2018-11-21T19:33:07.772Z,37.78
2018-11-21T19:35:36.333Z,38.40
2018-11-21T19:38:06.010Z,37.50
2018-11-21T19:40:34.613Z,38.30
2018-11-21T19:43:03.200Z,37.48
2018-11-21T19:45:31.897Z,37.63
2018-11-21T19:48:04.686Z,37.10
2018-11-21T19:50:34.216Z,39.60
2018-11-21T19:53:03.041Z,36.33
2018-11-21T19:55:32.875Z,38.13
2018-11-21T19:58:02.355Z,38.78
2018-11-21T20:00:32.530Z,38.75
2018-11-21T20:03:01.592Z,37.85
2018-11-21T20:05:32.391Z,37.28
2018-11-21T20:08:01.031Z,36.68
2018-11-21T20:10:29.578Z,37.28
2018-11-21T20:12:58.129Z,36.35
2018-11-21T20:15:27.770Z,37.67
2018-11-21T20:17:58.225Z,37.20
2018-11-21T20:20:26.917Z,35.20
2018-11-21T20:22:55.246Z,39.40
2018-11-21T20:25:24.794Z,36.48
2018-11-21T20:27:53.262Z,36.58
2018-11-21T20:30:29.287Z,39.13
2018-11-21T20:32:57.554Z,38.15
2018-11-21T20:35:29.034Z,36.93
2018-11-21T20:37:57.354Z,37.53
2018-11-21T20:40:27.635Z,38.60
2018-11-21T20:42:56.084Z,35.50
2018-11-21T20:45:26.070Z,36.93
2018-11-21T20:47:55.119Z,37.75
2018-11-21T20:50:23.454Z,35.48
2018-11-21T20:52:51.734Z,36.53
2018-11-21T20:55:21.852Z,36.75
2018-11-21T20:57:50.135Z,37.30
2018-11-21T21:00:23.640Z,37.25
2018-11-21T21:02:51.963Z,36.98
2018-11-21T21:05:21.740Z,38.67
2018-11-21T21:07:50.025Z,36.28
2018-11-21T21:10:22.792Z,37.88
2018-11-21T21:12:51.070Z,37.15
2018-11-21T21:15:19.321Z,38.95
2018-11-21T21:17:48.332Z,37.28
2018-11-21T21:20:18.100Z,36.33
2018-11-21T21:22:47.362Z,36.53
2018-11-21T21:25:17.525Z,36.77
2018-11-21T21:27:45.923Z,34.40
2018-11-21T21:30:16.126Z,36.50
2018-11-21T21:32:45.203Z,35.78
2018-11-21T21:35:14.140Z,37.05
2018-11-21T21:37:42.902Z,35.08
2018-11-21T21:40:13.307Z,35.08
2018-11-21T21:42:41.954Z,35.95
2018-11-21T21:45:12.420Z,35.17
2018-11-21T21:47:41.680Z,37.83
2018-11-21T21:50:10.261Z,36.55
2018-11-21T21:52:38.538Z,33.50
2018-11-21T21:55:08.117Z,36.00
2018-11-21T21:57:36.479Z,36.30
2018-11-21T22:00:08.461Z,34.67
2018-11-21T22:02:36.796Z,37.17
2018-11-21T22:05:06.857Z,35.60
2018-11-21T22:07:35.200Z,38.53
2018-11-21T22:10:03.440Z,36.25
2018-11-21T22:12:31.729Z,36.00
2018-11-21T22:15:00.071Z,37.63
2018-11-21T22:17:28.773Z,35.95
2018-11-21T22:19:57.243Z,36.60
